sensor_id;sensor_type;location;lat;lon;timestamp;P1;durP1;ratioP1;P2;durP2;ratioP2
55328;SDS011;41205;44.264;19.884;2023-05-10T00:02:06;10.18;;;6.07;;
55328;SDS011;41205;44.264;19.884;2023-05-10T00:04:32;10.15;;;7.22;;
55328;SDS011;41205;44.264;19.884;2023-05-10T00:06:58;9.63;;;7.03;;
55328;SDS011;41205;44.264;19.884;2023-05-10T00:09:24;10.18;;;7.25;;
55328;SDS011;41205;44.264;19.884;2023-05-10T00:11:49;9.57;;;7.00;;
55328;SDS011;41205;44.264;19.884;2023-05-10T00:14:15;14.00;;;7.30;;
55328;SDS011;41205;44.264;19.884;2023-05-10T00:16:41;12.52;;;8.23;;
55328;SDS011;41205;44.264;19.884;2023-05-10T00:19:07;9.32;;;6.07;;
55328;SDS011;41205;44.264;19.884;2023-05-10T00:21:32;8.73;;;5.95;;
55328;SDS011;41205;44.264;19.884;2023-05-10T00:23:58;18.33;;;10.80;;
55328;SDS011;41205;44.264;19.884;2023-05-10T00:26:25;14.20;;;7.68;;
55328;SDS011;41205;44.264;19.884;2023-05-10T00:28:50;10.10;;;5.95;;
55328;SDS011;41205;44.264;19.884;2023-05-10T00:31:16;10.15;;;6.38;;
55328;SDS011;41205;44.264;19.884;2023-05-10T00:33:42;11.23;;;6.75;;
55328;SDS011;41205;44.264;19.884;2023-05-10T00:36:08;10.23;;;6.82;;
55328;SDS011;41205;44.264;19.884;2023-05-10T00:38:33;7.00;;;5.68;;
55328;SDS011;41205;44.264;19.884;2023-05-10T00:40:59;12.15;;;6.47;;
55328;SDS011;41205;44.264;19.884;2023-05-10T00:43:25;10.18;;;6.95;;
55328;SDS011;41205;44.264;19.884;2023-05-10T00:45:51;11.45;;;6.63;;
55328;SDS011;41205;44.264;19.884;2023-05-10T00:48:17;9.15;;;5.50;;
55328;SDS011;41205;44.264;19.884;2023-05-10T00:50:43;8.40;;;5.35;;
55328;SDS011;41205;44.264;19.884;2023-05-10T00:53:09;9.90;;;6.07;;
55328;SDS011;41205;44.264;19.884;2023-05-10T00:55:35;14.55;;;10.23;;
55328;SDS011;41205;44.264;19.884;2023-05-10T00:58:02;13.45;;;7.32;;
55328;SDS011;41205;44.264;19.884;2023-05-10T01:00:28;14.10;;;8.82;;
55328;SDS011;41205;44.264;19.884;2023-05-10T01:02:54;11.85;;;7.10;;
55328;SDS011;41205;44.264;19.884;2023-05-10T01:05:20;12.23;;;6.88;;
55328;SDS011;41205;44.264;19.884;2023-05-10T01:07:46;17.58;;;10.43;;
55328;SDS011;41205;44.264;19.884;2023-05-10T01:10:13;13.57;;;8.52;;
55328;SDS011;41205;44.264;19.884;2023-05-10T01:12:40;11.82;;;7.97;;
55328;SDS011;41205;44.264;19.884;2023-05-10T01:15:07;11.13;;;8.38;;
55328;SDS011;41205;44.264;19.884;2023-05-10T01:17:35;23.35;;;8.23;;
55328;SDS011;41205;44.264;19.884;2023-05-10T01:20:02;14.10;;;9.95;;
55328;SDS011;41205;44.264;19.884;2023-05-10T01:25:43;12.88;;;8.18;;
55328;SDS011;41205;44.264;19.884;2023-05-10T01:28:33;10.25;;;6.45;;
55328;SDS011;41205;44.264;19.884;2023-05-10T01:33:59;12.65;;;7.20;;
55328;SDS011;41205;44.264;19.884;2023-05-10T01:37:02;11.35;;;5.97;;
55328;SDS011;41205;44.264;19.884;2023-05-10T01:42:13;8.55;;;5.68;;
55328;SDS011;41205;44.264;19.884;2023-05-10T01:47:44;10.98;;;6.15;;
55328;SDS011;41205;44.264;19.884;2023-05-10T01:50:19;11.38;;;5.85;;
55328;SDS011;41205;44.264;19.884;2023-05-10T01:52:53;16.20;;;6.18;;
55328;SDS011;41205;44.264;19.884;2023-05-10T01:55:23;8.75;;;6.47;;
55328;SDS011;41205;44.264;19.884;2023-05-10T01:57:53;11.70;;;7.22;;
55328;SDS011;41205;44.264;19.884;2023-05-10T02:00:30;9.52;;;6.72;;
55328;SDS011;41205;44.264;19.884;2023-05-10T02:02:58;11.45;;;7.07;;
55328;SDS011;41205;44.264;19.884;2023-05-10T02:05:26;9.52;;;5.78;;
55328;SDS011;41205;44.264;19.884;2023-05-10T02:07:55;7.05;;;5.57;;
55328;SDS011;41205;44.264;19.884;2023-05-10T02:10:22;10.00;;;6.40;;
55328;SDS011;41205;44.264;19.884;2023-05-10T02:12:48;10.25;;;6.25;;
55328;SDS011;41205;44.264;19.884;2023-05-10T02:15:17;9.18;;;6.03;;
55328;SDS011;41205;44.264;19.884;2023-05-10T02:17:46;9.75;;;6.88;;
55328;SDS011;41205;44.264;19.884;2023-05-10T02:20:12;10.90;;;7.28;;
55328;SDS011;41205;44.264;19.884;2023-05-10T02:22:40;12.70;;;8.55;;
55328;SDS011;41205;44.264;19.884;2023-05-10T02:25:08;10.27;;;7.40;;
55328;SDS011;41205;44.264;19.884;2023-05-10T02:27:34;8.18;;;6.78;;
55328;SDS011;41205;44.264;19.884;2023-05-10T02:30:02;12.63;;;7.93;;
55328;SDS011;41205;44.264;19.884;2023-05-10T02:32:30;11.60;;;6.68;;
55328;SDS011;41205;44.264;19.884;2023-05-10T02:34:56;9.35;;;6.20;;
55328;SDS011;41205;44.264;19.884;2023-05-10T02:37:24;12.38;;;7.57;;
55328;SDS011;41205;44.264;19.884;2023-05-10T02:39:52;10.20;;;7.65;;
55328;SDS011;41205;44.264;19.884;2023-05-10T02:42:21;8.65;;;6.30;;
55328;SDS011;41205;44.264;19.884;2023-05-10T02:44:50;10.45;;;6.40;;
55328;SDS011;41205;44.264;19.884;2023-05-10T02:47:18;7.90;;;6.32;;
55328;SDS011;41205;44.264;19.884;2023-05-10T02:49:44;12.57;;;6.45;;
55328;SDS011;41205;44.264;19.884;2023-05-10T02:52:10;8.02;;;6.05;;
55328;SDS011;41205;44.264;19.884;2023-05-10T02:54:43;8.85;;;6.20;;
55328;SDS011;41205;44.264;19.884;2023-05-10T02:57:11;9.77;;;6.65;;
55328;SDS011;41205;44.264;19.884;2023-05-10T02:59:43;9.65;;;6.22;;
55328;SDS011;41205;44.264;19.884;2023-05-10T03:02:10;8.98;;;7.32;;
55328;SDS011;41205;44.264;19.884;2023-05-10T03:04:37;8.73;;;6.60;;
55328;SDS011;41205;44.264;19.884;2023-05-10T03:07:02;8.55;;;6.57;;
55328;SDS011;41205;44.264;19.884;2023-05-10T03:09:29;10.82;;;5.75;;
55328;SDS011;41205;44.264;19.884;2023-05-10T03:17:30;10.13;;;7.20;;
55328;SDS011;41205;44.264;19.884;2023-05-10T03:20:26;9.80;;;6.50;;
55328;SDS011;41205;44.264;19.884;2023-05-10T03:23:00;8.80;;;5.78;;
55328;SDS011;41205;44.264;19.884;2023-05-10T03:25:32;9.48;;;6.43;;
55328;SDS011;41205;44.264;19.884;2023-05-10T03:28:00;12.93;;;7.25;;
55328;SDS011;41205;44.264;19.884;2023-05-10T03:30:28;10.07;;;6.35;;
55328;SDS011;41205;44.264;19.884;2023-05-10T03:32:55;10.07;;;7.07;;
55328;SDS011;41205;44.264;19.884;2023-05-10T03:35:21;10.57;;;7.43;;
55328;SDS011;41205;44.264;19.884;2023-05-10T03:37:48;11.32;;;7.55;;
55328;SDS011;41205;44.264;19.884;2023-05-10T03:40:14;10.65;;;6.88;;
55328;SDS011;41205;44.264;19.884;2023-05-10T03:42:40;11.00;;;8.40;;
55328;SDS011;41205;44.264;19.884;2023-05-10T03:45:06;15.90;;;7.75;;
55328;SDS011;41205;44.264;19.884;2023-05-10T03:47:32;10.95;;;7.03;;
55328;SDS011;41205;44.264;19.884;2023-05-10T03:49:58;10.20;;;7.00;;
55328;SDS011;41205;44.264;19.884;2023-05-10T03:52:23;12.43;;;7.57;;
55328;SDS011;41205;44.264;19.884;2023-05-10T03:54:49;14.88;;;8.88;;
55328;SDS011;41205;44.264;19.884;2023-05-10T03:57:15;12.60;;;8.18;;
55328;SDS011;41205;44.264;19.884;2023-05-10T03:59:40;22.23;;;13.00;;
55328;SDS011;41205;44.264;19.884;2023-05-10T04:02:06;10.43;;;7.80;;
55328;SDS011;41205;44.264;19.884;2023-05-10T04:04:32;8.60;;;6.45;;
55328;SDS011;41205;44.264;19.884;2023-05-10T04:06:57;13.65;;;8.95;;
55328;SDS011;41205;44.264;19.884;2023-05-10T04:09:23;15.50;;;11.18;;
55328;SDS011;41205;44.264;19.884;2023-05-10T04:11:49;11.88;;;8.50;;
55328;SDS011;41205;44.264;19.884;2023-05-10T04:14:14;9.85;;;7.90;;
55328;SDS011;41205;44.264;19.884;2023-05-10T04:16:41;13.57;;;7.18;;
55328;SDS011;41205;44.264;19.884;2023-05-10T04:19:07;11.05;;;6.88;;
55328;SDS011;41205;44.264;19.884;2023-05-10T04:21:32;13.88;;;7.53;;
55328;SDS011;41205;44.264;19.884;2023-05-10T04:23:58;9.88;;;7.75;;
55328;SDS011;41205;44.264;19.884;2023-05-10T04:26:24;12.38;;;8.27;;
55328;SDS011;41205;44.264;19.884;2023-05-10T04:28:50;15.93;;;8.25;;
55328;SDS011;41205;44.264;19.884;2023-05-10T04:31:16;11.32;;;7.78;;
55328;SDS011;41205;44.264;19.884;2023-05-10T04:33:42;13.77;;;8.25;;
55328;SDS011;41205;44.264;19.884;2023-05-10T04:36:07;21.25;;;9.10;;
55328;SDS011;41205;44.264;19.884;2023-05-10T04:38:33;15.75;;;8.85;;
55328;SDS011;41205;44.264;19.884;2023-05-10T04:41:06;18.23;;;8.55;;
55328;SDS011;41205;44.264;19.884;2023-05-10T04:43:33;11.32;;;7.40;;
55328;SDS011;41205;44.264;19.884;2023-05-10T04:46:00;10.40;;;6.70;;
55328;SDS011;41205;44.264;19.884;2023-05-10T04:48:26;8.95;;;6.63;;
55328;SDS011;41205;44.264;19.884;2023-05-10T04:50:52;10.40;;;6.22;;
55328;SDS011;41205;44.264;19.884;2023-05-10T04:53:17;8.57;;;6.70;;
55328;SDS011;41205;44.264;19.884;2023-05-10T04:55:43;9.30;;;5.75;;
55328;SDS011;41205;44.264;19.884;2023-05-10T04:58:09;10.75;;;6.88;;
55328;SDS011;41205;44.264;19.884;2023-05-10T05:00:34;7.28;;;5.88;;
55328;SDS011;41205;44.264;19.884;2023-05-10T05:03:00;8.50;;;6.72;;
55328;SDS011;41205;44.264;19.884;2023-05-10T05:05:26;8.27;;;5.43;;
55328;SDS011;41205;44.264;19.884;2023-05-10T05:07:52;8.52;;;5.63;;
55328;SDS011;41205;44.264;19.884;2023-05-10T05:10:17;6.00;;;5.05;;
55328;SDS011;41205;44.264;19.884;2023-05-10T05:12:43;8.00;;;6.20;;
55328;SDS011;41205;44.264;19.884;2023-05-10T05:15:09;7.68;;;5.60;;
55328;SDS011;41205;44.264;19.884;2023-05-10T05:17:35;5.85;;;5.07;;
55328;SDS011;41205;44.264;19.884;2023-05-10T05:20:01;6.25;;;5.00;;
55328;SDS011;41205;44.264;19.884;2023-05-10T05:22:28;11.82;;;7.35;;
55328;SDS011;41205;44.264;19.884;2023-05-10T05:24:54;13.00;;;6.88;;
55328;SDS011;41205;44.264;19.884;2023-05-10T05:27:20;7.97;;;7.18;;
55328;SDS011;41205;44.264;19.884;2023-05-10T05:29:52;12.45;;;9.55;;
55328;SDS011;41205;44.264;19.884;2023-05-10T05:32:19;11.50;;;7.75;;
55328;SDS011;41205;44.264;19.884;2023-05-10T05:34:45;20.95;;;16.08;;
55328;SDS011;41205;44.264;19.884;2023-05-10T05:37:18;12.80;;;9.45;;
55328;SDS011;41205;44.264;19.884;2023-05-10T05:39:44;8.63;;;7.82;;
55328;SDS011;41205;44.264;19.884;2023-05-10T05:42:11;10.68;;;8.25;;
55328;SDS011;41205;44.264;19.884;2023-05-10T05:44:37;8.25;;;6.95;;
55328;SDS011;41205;44.264;19.884;2023-05-10T05:47:03;9.82;;;5.50;;
55328;SDS011;41205;44.264;19.884;2023-05-10T05:49:29;7.07;;;6.13;;
55328;SDS011;41205;44.264;19.884;2023-05-10T05:51:59;7.07;;;6.38;;
55328;SDS011;41205;44.264;19.884;2023-05-10T05:54:28;10.93;;;7.22;;
55328;SDS011;41205;44.264;19.884;2023-05-10T05:56:55;8.10;;;6.57;;
55328;SDS011;41205;44.264;19.884;2023-05-10T05:59:24;6.60;;;6.00;;
55328;SDS011;41205;44.264;19.884;2023-05-10T06:01:50;7.13;;;6.43;;
55328;SDS011;41205;44.264;19.884;2023-05-10T06:04:16;7.40;;;5.70;;
55328;SDS011;41205;44.264;19.884;2023-05-10T06:06:42;7.18;;;6.45;;
55328;SDS011;41205;44.264;19.884;2023-05-10T06:09:08;9.70;;;5.70;;
55328;SDS011;41205;44.264;19.884;2023-05-10T06:11:34;6.13;;;5.45;;
55328;SDS011;41205;44.264;19.884;2023-05-10T06:14:00;5.28;;;4.47;;
55328;SDS011;41205;44.264;19.884;2023-05-10T06:16:26;7.45;;;4.93;;
55328;SDS011;41205;44.264;19.884;2023-05-10T06:18:52;5.25;;;4.32;;
55328;SDS011;41205;44.264;19.884;2023-05-10T06:21:18;5.72;;;4.13;;
55328;SDS011;41205;44.264;19.884;2023-05-10T06:23:44;4.72;;;4.18;;
55328;SDS011;41205;44.264;19.884;2023-05-10T06:26:10;5.05;;;4.07;;
55328;SDS011;41205;44.264;19.884;2023-05-10T06:28:36;6.00;;;3.85;;
55328;SDS011;41205;44.264;19.884;2023-05-10T06:31:05;5.45;;;4.18;;
55328;SDS011;41205;44.264;19.884;2023-05-10T06:33:31;5.85;;;5.07;;
55328;SDS011;41205;44.264;19.884;2023-05-10T06:35:57;5.43;;;4.18;;
55328;SDS011;41205;44.264;19.884;2023-05-10T06:38:23;3.95;;;3.40;;
55328;SDS011;41205;44.264;19.884;2023-05-10T06:40:48;16.48;;;5.85;;
55328;SDS011;41205;44.264;19.884;2023-05-10T06:43:14;5.05;;;4.57;;
55328;SDS011;41205;44.264;19.884;2023-05-10T06:45:40;5.20;;;4.80;;
55328;SDS011;41205;44.264;19.884;2023-05-10T06:48:06;6.43;;;4.78;;
55328;SDS011;41205;44.264;19.884;2023-05-10T06:50:32;5.78;;;5.15;;
55328;SDS011;41205;44.264;19.884;2023-05-10T06:52:58;7.05;;;5.72;;
55328;SDS011;41205;44.264;19.884;2023-05-10T06:55:24;6.82;;;5.25;;
55328;SDS011;41205;44.264;19.884;2023-05-10T06:57:50;6.40;;;5.60;;
55328;SDS011;41205;44.264;19.884;2023-05-10T07:00:16;7.63;;;5.25;;
55328;SDS011;41205;44.264;19.884;2023-05-10T07:02:43;5.60;;;5.10;;
55328;SDS011;41205;44.264;19.884;2023-05-10T07:05:08;6.70;;;5.85;;
55328;SDS011;41205;44.264;19.884;2023-05-10T07:07:34;9.02;;;6.70;;
55328;SDS011;41205;44.264;19.884;2023-05-10T07:10:00;6.85;;;6.35;;
55328;SDS011;41205;44.264;19.884;2023-05-10T07:12:26;5.70;;;5.03;;
55328;SDS011;41205;44.264;19.884;2023-05-10T07:14:52;5.20;;;4.80;;
55328;SDS011;41205;44.264;19.884;2023-05-10T07:17:18;6.18;;;5.63;;
55328;SDS011;41205;44.264;19.884;2023-05-10T07:19:43;6.13;;;5.63;;
55328;SDS011;41205;44.264;19.884;2023-05-10T07:22:09;6.22;;;5.40;;
55328;SDS011;41205;44.264;19.884;2023-05-10T07:24:35;6.00;;;5.50;;
55328;SDS011;41205;44.264;19.884;2023-05-10T07:27:01;6.05;;;5.65;;
55328;SDS011;41205;44.264;19.884;2023-05-10T07:29:26;6.18;;;5.65;;
55328;SDS011;41205;44.264;19.884;2023-05-10T07:31:53;4.63;;;4.15;;
55328;SDS011;41205;44.264;19.884;2023-05-10T07:34:19;5.25;;;4.85;;
55328;SDS011;41205;44.264;19.884;2023-05-10T07:36:45;6.25;;;5.75;;
55328;SDS011;41205;44.264;19.884;2023-05-10T07:39:11;3.88;;;3.58;;
55328;SDS011;41205;44.264;19.884;2023-05-10T07:41:37;5.45;;;3.65;;
55328;SDS011;41205;44.264;19.884;2023-05-10T07:44:03;4.13;;;3.50;;
55328;SDS011;41205;44.264;19.884;2023-05-10T07:46:30;3.90;;;3.25;;
55328;SDS011;41205;44.264;19.884;2023-05-10T07:48:56;5.45;;;3.63;;
55328;SDS011;41205;44.264;19.884;2023-05-10T07:51:22;5.07;;;3.20;;
55328;SDS011;41205;44.264;19.884;2023-05-10T07:53:47;8.25;;;5.07;;
55328;SDS011;41205;44.264;19.884;2023-05-10T07:59:15;7.88;;;4.47;;
55328;SDS011;41205;44.264;19.884;2023-05-10T08:01:42;7.85;;;3.70;;
55328;SDS011;41205;44.264;19.884;2023-05-10T08:04:07;3.95;;;3.20;;
55328;SDS011;41205;44.264;19.884;2023-05-10T08:06:34;3.72;;;2.80;;
55328;SDS011;41205;44.264;19.884;2023-05-10T08:08:59;4.40;;;3.63;;
55328;SDS011;41205;44.264;19.884;2023-05-10T08:11:25;4.38;;;3.00;;
55328;SDS011;41205;44.264;19.884;2023-05-10T08:13:53;20.65;;;3.97;;
55328;SDS011;41205;44.264;19.884;2023-05-10T08:16:19;4.43;;;3.45;;
55328;SDS011;41205;44.264;19.884;2023-05-10T08:18:45;8.43;;;4.60;;
55328;SDS011;41205;44.264;19.884;2023-05-10T08:21:12;7.60;;;4.85;;
55328;SDS011;41205;44.264;19.884;2023-05-10T08:23:39;6.30;;;3.85;;
55328;SDS011;41205;44.264;19.884;2023-05-10T08:26:05;5.32;;;3.30;;
55328;SDS011;41205;44.264;19.884;2023-05-10T08:28:31;4.22;;;3.30;;
55328;SDS011;41205;44.264;19.884;2023-05-10T08:30:56;3.90;;;2.72;;
55328;SDS011;41205;44.264;19.884;2023-05-10T08:33:22;5.78;;;2.80;;
55328;SDS011;41205;44.264;19.884;2023-05-10T08:35:48;7.60;;;3.22;;
55328;SDS011;41205;44.264;19.884;2023-05-10T08:38:13;4.40;;;2.90;;
55328;SDS011;41205;44.264;19.884;2023-05-10T08:40:43;6.32;;;3.20;;
55328;SDS011;41205;44.264;19.884;2023-05-10T08:43:09;4.82;;;2.90;;
55328;SDS011;41205;44.264;19.884;2023-05-10T08:45:37;4.78;;;2.95;;
55328;SDS011;41205;44.264;19.884;2023-05-10T08:48:08;5.60;;;3.92;;
55328;SDS011;41205;44.264;19.884;2023-05-10T08:50:39;6.43;;;3.15;;
55328;SDS011;41205;44.264;19.884;2023-05-10T08:53:06;5.47;;;2.75;;
55328;SDS011;41205;44.264;19.884;2023-05-10T08:55:36;8.82;;;2.90;;
55328;SDS011;41205;44.264;19.884;2023-05-10T08:58:03;4.35;;;2.78;;
55328;SDS011;41205;44.264;19.884;2023-05-10T09:00:29;3.80;;;2.60;;
55328;SDS011;41205;44.264;19.884;2023-05-10T09:02:56;5.22;;;2.80;;
55328;SDS011;41205;44.264;19.884;2023-05-10T09:05:23;4.03;;;2.72;;
55328;SDS011;41205;44.264;19.884;2023-05-10T09:07:49;5.03;;;3.08;;
55328;SDS011;41205;44.264;19.884;2023-05-10T09:10:15;8.25;;;3.03;;
55328;SDS011;41205;44.264;19.884;2023-05-10T09:12:41;3.20;;;2.47;;
55328;SDS011;41205;44.264;19.884;2023-05-10T09:15:09;4.97;;;2.90;;
55328;SDS011;41205;44.264;19.884;2023-05-10T09:17:35;7.05;;;2.80;;
55328;SDS011;41205;44.264;19.884;2023-05-10T09:20:02;4.32;;;3.25;;
55328;SDS011;41205;44.264;19.884;2023-05-10T09:22:35;4.53;;;3.00;;
55328;SDS011;41205;44.264;19.884;2023-05-10T09:27:33;4.18;;;2.90;;
55328;SDS011;41205;44.264;19.884;2023-05-10T09:29:59;4.20;;;3.05;;
55328;SDS011;41205;44.264;19.884;2023-05-10T09:32:43;4.97;;;3.03;;
55328;SDS011;41205;44.264;19.884;2023-05-10T09:35:11;4.63;;;2.80;;
55328;SDS011;41205;44.264;19.884;2023-05-10T09:37:39;6.85;;;2.80;;
55328;SDS011;41205;44.264;19.884;2023-05-10T09:40:11;5.90;;;2.58;;
55328;SDS011;41205;44.264;19.884;2023-05-10T09:43:03;6.32;;;3.03;;
55328;SDS011;41205;44.264;19.884;2023-05-10T09:45:34;6.47;;;2.92;;
55328;SDS011;41205;44.264;19.884;2023-05-10T09:48:00;5.95;;;3.45;;
55328;SDS011;41205;44.264;19.884;2023-05-10T09:50:27;5.70;;;3.35;;
55328;SDS011;41205;44.264;19.884;2023-05-10T09:52:58;5.63;;;3.55;;
55328;SDS011;41205;44.264;19.884;2023-05-10T09:55:26;3.78;;;2.92;;
55328;SDS011;41205;44.264;19.884;2023-05-10T09:58:03;6.43;;;2.88;;
55328;SDS011;41205;44.264;19.884;2023-05-10T10:00:34;5.50;;;3.08;;
55328;SDS011;41205;44.264;19.884;2023-05-10T10:03:01;3.88;;;2.90;;
55328;SDS011;41205;44.264;19.884;2023-05-10T10:05:31;7.30;;;3.45;;
55328;SDS011;41205;44.264;19.884;2023-05-10T10:07:58;6.45;;;3.58;;
55328;SDS011;41205;44.264;19.884;2023-05-10T10:10:25;4.05;;;2.67;;
55328;SDS011;41205;44.264;19.884;2023-05-10T10:12:53;3.38;;;2.50;;
55328;SDS011;41205;44.264;19.884;2023-05-10T10:15:23;5.20;;;3.10;;
55328;SDS011;41205;44.264;19.884;2023-05-10T10:17:49;5.85;;;3.75;;
55328;SDS011;41205;44.264;19.884;2023-05-10T10:20:16;6.22;;;3.08;;
55328;SDS011;41205;44.264;19.884;2023-05-10T10:22:43;5.88;;;3.42;;
55328;SDS011;41205;44.264;19.884;2023-05-10T10:25:14;4.93;;;2.85;;
55328;SDS011;41205;44.264;19.884;2023-05-10T10:35:58;9.80;;;3.00;;
55328;SDS011;41205;44.264;19.884;2023-05-10T10:38:25;4.10;;;2.42;;
55328;SDS011;41205;44.264;19.884;2023-05-10T10:41:10;9.95;;;3.20;;
55328;SDS011;41205;44.264;19.884;2023-05-10T10:44:22;5.82;;;3.50;;
55328;SDS011;41205;44.264;19.884;2023-05-10T10:49:24;5.65;;;3.20;;
55328;SDS011;41205;44.264;19.884;2023-05-10T10:54:58;5.43;;;3.13;;
55328;SDS011;41205;44.264;19.884;2023-05-10T11:00:29;9.77;;;4.30;;
55328;SDS011;41205;44.264;19.884;2023-05-10T11:02:59;5.50;;;3.58;;
55328;SDS011;41205;44.264;19.884;2023-05-10T11:05:42;4.15;;;2.95;;
55328;SDS011;41205;44.264;19.884;2023-05-10T11:08:27;4.57;;;3.60;;
55328;SDS011;41205;44.264;19.884;2023-05-10T11:13:30;7.93;;;3.05;;
55328;SDS011;41205;44.264;19.884;2023-05-10T11:21:27;13.98;;;7.82;;
55328;SDS011;41205;44.264;19.884;2023-05-10T11:23:54;6.88;;;3.25;;
55328;SDS011;41205;44.264;19.884;2023-05-10T11:26:24;11.77;;;3.75;;
55328;SDS011;41205;44.264;19.884;2023-05-10T11:28:55;7.57;;;3.78;;
55328;SDS011;41205;44.264;19.884;2023-05-10T11:31:20;7.55;;;3.47;;
55328;SDS011;41205;44.264;19.884;2023-05-10T11:36:15;7.80;;;4.50;;
55328;SDS011;41205;44.264;19.884;2023-05-10T11:38:45;9.80;;;3.72;;
55328;SDS011;41205;44.264;19.884;2023-05-10T11:41:12;8.85;;;4.38;;
55328;SDS011;41205;44.264;19.884;2023-05-10T11:43:38;8.10;;;3.33;;
55328;SDS011;41205;44.264;19.884;2023-05-10T11:46:09;4.80;;;3.33;;
55328;SDS011;41205;44.264;19.884;2023-05-10T11:48:37;4.40;;;3.65;;
55328;SDS011;41205;44.264;19.884;2023-05-10T11:51:04;4.63;;;3.55;;
55328;SDS011;41205;44.264;19.884;2023-05-10T11:53:31;6.68;;;3.83;;
55328;SDS011;41205;44.264;19.884;2023-05-10T11:58:30;4.40;;;3.20;;
55328;SDS011;41205;44.264;19.884;2023-05-10T12:00:56;4.75;;;2.95;;
55328;SDS011;41205;44.264;19.884;2023-05-10T12:03:23;6.10;;;3.53;;
55328;SDS011;41205;44.264;19.884;2023-05-10T12:05:49;10.00;;;3.60;;
55328;SDS011;41205;44.264;19.884;2023-05-10T12:08:15;5.28;;;3.78;;
55328;SDS011;41205;44.264;19.884;2023-05-10T12:10:46;4.57;;;2.75;;
55328;SDS011;41205;44.264;19.884;2023-05-10T12:13:12;4.20;;;3.00;;
55328;SDS011;41205;44.264;19.884;2023-05-10T12:15:39;6.13;;;3.40;;
55328;SDS011;41205;44.264;19.884;2023-05-10T12:18:05;7.88;;;4.03;;
55328;SDS011;41205;44.264;19.884;2023-05-10T12:20:33;6.18;;;4.15;;
55328;SDS011;41205;44.264;19.884;2023-05-10T12:22:58;7.60;;;3.03;;
55328;SDS011;41205;44.264;19.884;2023-05-10T12:25:30;12.10;;;3.78;;
55328;SDS011;41205;44.264;19.884;2023-05-10T12:28:02;7.40;;;3.50;;
55328;SDS011;41205;44.264;19.884;2023-05-10T12:30:30;4.20;;;3.28;;
55328;SDS011;41205;44.264;19.884;2023-05-10T12:33:10;5.63;;;3.38;;
55328;SDS011;41205;44.264;19.884;2023-05-10T12:35:48;4.95;;;3.50;;
55328;SDS011;41205;44.264;19.884;2023-05-10T12:41:04;8.48;;;3.33;;
55328;SDS011;41205;44.264;19.884;2023-05-10T12:43:34;5.90;;;3.08;;
55328;SDS011;41205;44.264;19.884;2023-05-10T12:46:04;5.72;;;3.60;;
55328;SDS011;41205;44.264;19.884;2023-05-10T12:48:33;6.05;;;3.65;;
55328;SDS011;41205;44.264;19.884;2023-05-10T12:51:00;7.20;;;2.92;;
55328;SDS011;41205;44.264;19.884;2023-05-10T12:53:27;7.03;;;3.47;;
55328;SDS011;41205;44.264;19.884;2023-05-10T12:55:52;6.38;;;4.07;;
55328;SDS011;41205;44.264;19.884;2023-05-10T12:58:18;4.15;;;3.35;;
55328;SDS011;41205;44.264;19.884;2023-05-10T13:00:45;10.52;;;3.92;;
55328;SDS011;41205;44.264;19.884;2023-05-10T13:03:10;4.25;;;3.08;;
55328;SDS011;41205;44.264;19.884;2023-05-10T13:05:36;8.50;;;3.75;;
55328;SDS011;41205;44.264;19.884;2023-05-10T13:08:03;5.80;;;3.70;;
55328;SDS011;41205;44.264;19.884;2023-05-10T13:10:29;5.20;;;3.70;;
55328;SDS011;41205;44.264;19.884;2023-05-10T13:12:55;12.13;;;5.22;;
55328;SDS011;41205;44.264;19.884;2023-05-10T13:15:21;6.15;;;3.70;;
55328;SDS011;41205;44.264;19.884;2023-05-10T13:17:47;7.53;;;4.18;;
55328;SDS011;41205;44.264;19.884;2023-05-10T13:20:13;7.72;;;4.65;;
55328;SDS011;41205;44.264;19.884;2023-05-10T13:22:39;7.43;;;3.63;;
55328;SDS011;41205;44.264;19.884;2023-05-10T13:25:06;6.88;;;3.67;;
55328;SDS011;41205;44.264;19.884;2023-05-10T13:27:31;7.03;;;3.65;;
55328;SDS011;41205;44.264;19.884;2023-05-10T13:29:57;4.85;;;3.90;;
55328;SDS011;41205;44.264;19.884;2023-05-10T13:32:24;9.15;;;3.63;;
55328;SDS011;41205;44.264;19.884;2023-05-10T13:34:50;5.97;;;3.63;;
55328;SDS011;41205;44.264;19.884;2023-05-10T13:37:16;8.20;;;3.83;;
55328;SDS011;41205;44.264;19.884;2023-05-10T13:39:42;4.63;;;3.15;;
55328;SDS011;41205;44.264;19.884;2023-05-10T13:42:08;3.83;;;2.90;;
55328;SDS011;41205;44.264;19.884;2023-05-10T13:44:33;5.35;;;3.78;;
55328;SDS011;41205;44.264;19.884;2023-05-10T13:46:59;5.63;;;3.20;;
55328;SDS011;41205;44.264;19.884;2023-05-10T13:49:25;5.78;;;4.50;;
55328;SDS011;41205;44.264;19.884;2023-05-10T13:51:51;6.13;;;3.95;;
55328;SDS011;41205;44.264;19.884;2023-05-10T13:54:17;9.35;;;3.95;;
55328;SDS011;41205;44.264;19.884;2023-05-10T13:56:45;4.65;;;3.15;;
55328;SDS011;41205;44.264;19.884;2023-05-10T13:59:12;5.22;;;3.30;;
55328;SDS011;41205;44.264;19.884;2023-05-10T14:01:39;7.10;;;3.95;;
55328;SDS011;41205;44.264;19.884;2023-05-10T14:04:08;4.50;;;3.20;;
55328;SDS011;41205;44.264;19.884;2023-05-10T14:06:38;5.78;;;3.53;;
55328;SDS011;41205;44.264;19.884;2023-05-10T14:09:04;4.90;;;3.88;;
55328;SDS011;41205;44.264;19.884;2023-05-10T14:11:29;5.97;;;4.13;;
55328;SDS011;41205;44.264;19.884;2023-05-10T14:13:55;7.93;;;3.90;;
55328;SDS011;41205;44.264;19.884;2023-05-10T14:16:21;5.32;;;3.13;;
55328;SDS011;41205;44.264;19.884;2023-05-10T14:18:46;5.72;;;3.47;;
55328;SDS011;41205;44.264;19.884;2023-05-10T14:21:12;5.03;;;3.83;;
55328;SDS011;41205;44.264;19.884;2023-05-10T14:23:38;7.88;;;3.80;;
55328;SDS011;41205;44.264;19.884;2023-05-10T14:26:04;8.68;;;3.42;;
55328;SDS011;41205;44.264;19.884;2023-05-10T14:28:30;6.32;;;3.85;;
55328;SDS011;41205;44.264;19.884;2023-05-10T14:30:56;5.65;;;3.22;;
55328;SDS011;41205;44.264;19.884;2023-05-10T14:33:21;4.90;;;3.55;;
55328;SDS011;41205;44.264;19.884;2023-05-10T14:35:47;6.82;;;3.47;;
55328;SDS011;41205;44.264;19.884;2023-05-10T14:38:13;8.52;;;4.30;;
55328;SDS011;41205;44.264;19.884;2023-05-10T14:40:39;7.22;;;4.07;;
55328;SDS011;41205;44.264;19.884;2023-05-10T14:43:05;6.15;;;3.95;;
55328;SDS011;41205;44.264;19.884;2023-05-10T14:45:31;6.03;;;3.65;;
55328;SDS011;41205;44.264;19.884;2023-05-10T14:47:57;4.50;;;3.70;;
55328;SDS011;41205;44.264;19.884;2023-05-10T14:50:23;8.18;;;4.10;;
55328;SDS011;41205;44.264;19.884;2023-05-10T14:52:48;7.90;;;3.90;;
55328;SDS011;41205;44.264;19.884;2023-05-10T14:55:15;7.78;;;3.50;;
55328;SDS011;41205;44.264;19.884;2023-05-10T14:57:40;6.57;;;4.60;;
55328;SDS011;41205;44.264;19.884;2023-05-10T15:00:06;7.43;;;3.50;;
55328;SDS011;41205;44.264;19.884;2023-05-10T15:02:33;5.10;;;4.00;;
55328;SDS011;41205;44.264;19.884;2023-05-10T15:04:58;7.07;;;4.18;;
55328;SDS011;41205;44.264;19.884;2023-05-10T15:07:24;4.95;;;3.58;;
55328;SDS011;41205;44.264;19.884;2023-05-10T15:09:50;6.65;;;4.78;;
55328;SDS011;41205;44.264;19.884;2023-05-10T15:12:19;4.55;;;3.60;;
55328;SDS011;41205;44.264;19.884;2023-05-10T15:14:45;5.70;;;4.07;;
55328;SDS011;41205;44.264;19.884;2023-05-10T15:17:11;7.40;;;4.38;;
55328;SDS011;41205;44.264;19.884;2023-05-10T15:19:37;6.75;;;4.43;;
55328;SDS011;41205;44.264;19.884;2023-05-10T15:22:04;10.73;;;6.25;;
55328;SDS011;41205;44.264;19.884;2023-05-10T15:24:30;7.53;;;3.92;;
55328;SDS011;41205;44.264;19.884;2023-05-10T15:26:56;6.68;;;3.85;;
55328;SDS011;41205;44.264;19.884;2023-05-10T15:29:22;8.23;;;4.78;;